createdAt,value
2019-03-12T00:00:29.491Z,1.20
2019-03-12T00:02:58.146Z,1.30
2019-03-12T00:05:26.730Z,1.23
2019-03-12T00:07:55.294Z,1.10
2019-03-12T00:10:23.878Z,1.37
2019-03-12T00:12:52.442Z,1.30
2019-03-12T00:15:21.024Z,1.27
2019-03-12T00:17:49.614Z,1.00
2019-03-12T00:20:18.258Z,1.50
2019-03-12T00:22:46.826Z,1.37
2019-03-12T00:25:15.506Z,1.23
2019-03-12T00:27:44.074Z,1.20
2019-03-12T00:30:12.882Z,1.60
2019-03-12T00:32:41.462Z,1.03
2019-03-12T00:35:10.373Z,1.17
2019-03-12T00:37:38.945Z,1.10
2019-03-12T00:40:09.356Z,0.97
2019-03-12T00:42:37.941Z,1.20
2019-03-12T00:45:09.258Z,1.20
2019-03-12T00:47:37.834Z,1.10
2019-03-12T00:50:08.644Z,1.00
2019-03-12T00:52:37.322Z,1.10
2019-03-12T00:55:07.738Z,1.00
2019-03-12T00:57:36.309Z,1.07
2019-03-12T01:00:10.574Z,1.00
2019-03-12T01:02:39.144Z,1.03
2019-03-12T01:05:08.030Z,1.10
2019-03-12T01:07:36.598Z,1.03
2019-03-12T01:10:07.622Z,1.00
2019-03-12T01:12:36.257Z,1.10
2019-03-12T01:15:06.898Z,1.07
2019-03-12T01:17:35.469Z,1.00
2019-03-12T01:20:06.477Z,1.03
2019-03-12T01:22:35.154Z,0.80
2019-03-12T01:25:04.715Z,0.90
2019-03-12T01:27:33.306Z,1.10
2019-03-12T01:30:01.871Z,1.30
2019-03-12T01:32:30.459Z,1.10
2019-03-12T01:34:59.018Z,1.00
2019-03-12T01:37:27.712Z,1.00
2019-03-12T01:39:56.277Z,1.37
2019-03-12T01:42:24.862Z,1.10
2019-03-12T01:44:53.442Z,0.97
2019-03-12T01:47:22.182Z,1.20
2019-03-12T01:49:50.818Z,1.20
2019-03-12T01:52:19.329Z,1.17
2019-03-12T01:54:47.911Z,1.43
2019-03-12T01:57:16.490Z,1.37
2019-03-12T01:59:45.134Z,1.20
2019-03-12T02:02:13.701Z,1.20
2019-03-12T02:04:42.274Z,1.10
2019-03-12T02:07:10.862Z,1.30
2019-03-12T02:09:39.428Z,1.40
2019-03-12T02:12:08.074Z,1.10
2019-03-12T02:14:36.642Z,1.00
2019-03-12T02:17:05.293Z,0.90
2019-03-12T02:19:33.995Z,1.10
2019-03-12T02:22:02.571Z,1.17
2019-03-12T02:24:31.144Z,1.20
2019-03-12T02:26:59.742Z,1.13
2019-03-12T02:29:28.310Z,1.20
2019-03-12T02:31:57.096Z,1.20
2019-03-12T02:34:25.758Z,0.90
2019-03-12T02:36:54.471Z,1.17
2019-03-12T02:39:23.131Z,1.07
2019-03-12T02:41:51.774Z,1.67
2019-03-12T02:44:20.347Z,0.93
2019-03-12T02:46:49.079Z,0.97
2019-03-12T02:49:17.670Z,1.20
2019-03-12T02:51:46.254Z,1.07
2019-03-12T02:54:14.807Z,1.30
2019-03-12T02:56:43.386Z,1.10
2019-03-12T02:59:11.954Z,1.10
2019-03-12T03:01:40.535Z,0.90
2019-03-12T03:04:09.201Z,1.00
2019-03-12T03:06:42.330Z,1.00
2019-03-12T03:09:10.903Z,1.40
2019-03-12T03:11:39.603Z,1.33
2019-03-12T03:14:11.330Z,1.33
2019-03-12T03:16:39.899Z,1.20
2019-03-12T03:19:08.481Z,1.27
2019-03-12T03:21:37.057Z,1.43
2019-03-12T03:24:05.721Z,1.10
2019-03-12T03:26:34.291Z,1.30
2019-03-12T03:29:02.867Z,1.27
2019-03-12T03:31:31.435Z,1.17
2019-03-12T03:34:00.025Z,1.50
2019-03-12T03:36:28.659Z,1.30
2019-03-12T03:38:57.239Z,1.57
2019-03-12T03:41:25.878Z,1.10
2019-03-12T03:43:54.511Z,1.40
2019-03-12T03:46:23.093Z,1.17
2019-03-12T03:48:51.659Z,1.30
2019-03-12T03:51:20.235Z,1.50
2019-03-12T03:53:48.802Z,1.10
2019-03-12T03:56:17.461Z,1.20
2019-03-12T03:58:46.031Z,1.30
2019-03-12T04:01:14.674Z,1.37
2019-03-12T04:03:43.317Z,1.23
2019-03-12T04:06:12.148Z,1.40
2019-03-12T04:08:40.801Z,1.40
2019-03-12T04:11:09.363Z,1.57
2019-03-12T04:13:38.041Z,1.47
2019-03-12T04:16:06.632Z,1.13
2019-03-12T04:18:35.227Z,1.40
2019-03-12T04:21:03.890Z,1.57
2019-03-12T04:23:32.532Z,1.70
2019-03-12T04:26:01.178Z,1.40
2019-03-12T04:28:29.748Z,1.50
2019-03-12T04:30:58.395Z,1.40
2019-03-12T04:33:52.975Z,1.50
2019-03-12T04:36:21.622Z,1.20
2019-03-12T04:38:50.191Z,1.30
2019-03-12T04:41:18.775Z,1.20
2019-03-12T04:43:47.431Z,1.27
2019-03-12T04:46:16.154Z,1.33
2019-03-12T04:48:44.723Z,1.20
2019-03-12T04:51:13.298Z,1.70
2019-03-12T04:53:41.879Z,1.57
2019-03-12T04:56:10.456Z,1.50
2019-03-12T04:58:39.030Z,1.20
2019-03-12T05:01:07.603Z,1.30
2019-03-12T05:03:36.178Z,1.40
2019-03-12T05:06:04.939Z,1.43
2019-03-12T05:08:33.622Z,1.20
2019-03-12T05:11:02.195Z,1.50
2019-03-12T05:13:30.759Z,1.57
2019-03-12T05:15:59.475Z,1.70
2019-03-12T05:18:28.055Z,1.77
2019-03-12T05:20:56.698Z,1.53
2019-03-12T05:23:25.413Z,1.80
2019-03-12T05:25:53.994Z,1.50
2019-03-12T05:28:22.562Z,1.40
2019-03-12T05:30:51.240Z,1.67
2019-03-12T05:33:19.915Z,1.80
2019-03-12T05:35:48.442Z,1.70
2019-03-12T05:38:17.048Z,1.40
2019-03-12T05:40:45.594Z,1.70
2019-03-12T05:43:14.242Z,1.70
2019-03-12T05:45:42.814Z,1.60
2019-03-12T05:48:11.498Z,1.63
2019-03-12T05:50:40.078Z,1.90
2019-03-12T05:53:13.656Z,1.63
2019-03-12T05:55:42.404Z,1.40
2019-03-12T05:58:11.120Z,1.50
2019-03-12T06:00:39.666Z,1.73
2019-03-12T06:03:08.234Z,1.53
2019-03-12T06:05:36.818Z,1.77
2019-03-12T06:08:05.451Z,1.53
2019-03-12T06:10:34.103Z,1.60
2019-03-12T06:13:02.739Z,1.37
2019-03-12T06:15:31.334Z,1.70
2019-03-12T06:17:59.974Z,1.70
2019-03-12T06:20:28.542Z,1.83
2019-03-12T06:22:57.130Z,1.40
2019-03-12T06:25:25.736Z,2.03
2019-03-12T06:27:54.278Z,1.80
2019-03-12T06:30:25.758Z,1.67
2019-03-12T06:32:54.798Z,1.57
2019-03-12T06:35:27.754Z,1.37
2019-03-12T06:37:58.054Z,1.30
2019-03-12T06:40:31.229Z,1.33
2019-03-12T06:43:01.458Z,1.30
2019-03-12T06:45:31.676Z,1.10
2019-03-12T06:48:08.066Z,1.10
2019-03-12T06:50:38.269Z,1.13
2019-03-12T06:53:17.561Z,0.90
2019-03-12T06:55:59.770Z,0.80
2019-03-12T06:58:33.130Z,0.90
2019-03-12T07:01:03.342Z,0.80
2019-03-12T07:03:49.902Z,0.78
2019-03-12T07:06:23.041Z,1.00
2019-03-12T07:08:59.276Z,1.45
2019-03-12T07:11:45.583Z,1.10
2019-03-12T07:14:30.864Z,1.30
2019-03-12T07:17:01.143Z,1.45
2019-03-12T07:19:37.094Z,1.50
2019-03-12T07:22:10.238Z,1.40
2019-03-12T07:24:49.261Z,1.17
2019-03-12T07:27:22.081Z,1.20
2019-03-12T07:29:52.290Z,1.42
2019-03-12T07:32:38.682Z,1.25
2019-03-12T07:35:22.780Z,1.20
2019-03-12T07:38:08.182Z,1.25
2019-03-12T07:40:38.389Z,1.30
2019-03-12T07:43:08.606Z,1.15
2019-03-12T07:45:57.045Z,1.50
2019-03-12T07:48:36.278Z,1.22
2019-03-12T07:51:06.485Z,1.25
2019-03-12T07:53:36.706Z,1.60
2019-03-12T07:56:13.046Z,1.25
2019-03-12T07:58:59.638Z,1.30
2019-03-12T08:01:29.864Z,1.32
2019-03-12T08:04:02.563Z,1.25
2019-03-12T08:06:50.979Z,1.20
2019-03-12T08:09:24.106Z,1.27
2019-03-12T08:11:56.859Z,1.35
2019-03-12T08:14:36.242Z,1.57
2019-03-12T08:17:06.713Z,1.40
2019-03-12T08:19:39.688Z,1.42
2019-03-12T08:22:21.773Z,1.35
2019-03-12T08:24:51.994Z,1.40
2019-03-12T08:27:31.339Z,1.35
2019-03-12T08:30:17.886Z,1.50
2019-03-12T08:33:03.109Z,2.15
2019-03-12T08:35:39.294Z,1.50
2019-03-12T08:38:09.522Z,1.55
2019-03-12T08:40:51.943Z,1.70
2019-03-12T08:43:23.213Z,1.40
2019-03-12T08:46:05.292Z,5.67
2019-03-12T08:48:35.518Z,1.65
2019-03-12T08:51:08.474Z,1.17
2019-03-12T08:53:55.100Z,3.35
2019-03-12T08:56:25.374Z,1.30
2019-03-12T08:58:55.601Z,1.17
2019-03-12T09:01:28.673Z,1.02
2019-03-12T09:04:01.582Z,1.15
2019-03-12T09:06:34.790Z,1.42
2019-03-12T09:09:21.686Z,1.30
2019-03-12T09:11:54.752Z,1.42
2019-03-12T09:14:37.323Z,1.22
2019-03-12T09:17:24.254Z,1.20
2019-03-12T09:20:11.115Z,1.40
2019-03-12T09:22:50.694Z,1.12
2019-03-12T09:25:39.014Z,1.32
2019-03-12T09:28:17.978Z,1.42
2019-03-12T09:30:50.922Z,1.10
2019-03-12T09:33:21.155Z,1.67
2019-03-12T09:35:54.347Z,1.20
2019-03-12T09:38:24.563Z,1.22
2019-03-12T09:40:57.666Z,1.30
2019-03-12T09:43:30.482Z,1.45
2019-03-12T09:46:00.705Z,1.20
2019-03-12T09:48:45.713Z,1.00
2019-03-12T09:51:24.410Z,1.10
2019-03-12T09:53:54.807Z,1.00
2019-03-12T09:56:37.190Z,1.40
2019-03-12T09:59:16.274Z,1.10
2019-03-12T10:01:52.722Z,1.33
2019-03-12T10:04:35.391Z,1.30
2019-03-12T10:07:08.746Z,1.13
2019-03-12T10:09:39.007Z,1.23
2019-03-12T10:12:21.192Z,1.30
2019-03-12T10:14:51.512Z,1.23
2019-03-12T10:17:24.666Z,1.23
2019-03-12T10:19:54.870Z,1.30
2019-03-12T10:22:36.890Z,1.30
2019-03-12T10:25:14.765Z,1.03
2019-03-12T10:27:53.754Z,1.23
2019-03-12T10:30:29.734Z,1.00
2019-03-12T10:33:12.067Z,1.30
2019-03-12T10:35:45.186Z,1.13
2019-03-12T10:39:01.270Z,1.03
2019-03-12T10:41:36.990Z,1.00
2019-03-12T10:44:07.219Z,0.80
2019-03-12T10:46:37.422Z,1.17
2019-03-12T10:49:06.240Z,1.00
2019-03-12T10:51:34.814Z,1.40
2019-03-12T10:54:03.823Z,0.97
2019-03-12T10:56:32.466Z,1.00
2019-03-12T10:59:01.025Z,1.00
2019-03-12T11:01:29.606Z,0.90
2019-03-12T11:03:58.234Z,0.80
2019-03-12T11:06:26.951Z,0.80
2019-03-12T11:08:55.618Z,0.90
2019-03-12T11:11:24.308Z,0.97
2019-03-12T11:13:52.914Z,0.90
2019-03-12T11:16:21.551Z,0.90
2019-03-12T11:18:50.202Z,0.90
2019-03-12T11:21:19.003Z,0.70
2019-03-12T11:23:47.578Z,0.90
2019-03-12T11:26:16.250Z,0.83
2019-03-12T11:28:44.970Z,0.80
2019-03-12T11:31:13.602Z,0.80
2019-03-12T11:33:42.191Z,0.70
2019-03-12T11:36:10.823Z,0.77
2019-03-12T11:38:39.457Z,1.67
2019-03-12T11:41:08.253Z,0.60
2019-03-12T11:43:36.924Z,0.63
2019-03-12T11:46:06.030Z,1.13
2019-03-12T11:48:34.581Z,0.60
2019-03-12T11:51:03.268Z,0.50
2019-03-12T11:53:31.878Z,0.57
2019-03-12T11:56:00.466Z,0.80
2019-03-12T11:58:29.101Z,0.60
2019-03-12T12:00:59.481Z,0.60
2019-03-12T12:03:28.130Z,0.80
2019-03-12T12:05:56.839Z,0.70
2019-03-12T12:08:25.485Z,0.60
2019-03-12T12:10:54.220Z,0.70
2019-03-12T12:13:22.863Z,0.60
2019-03-12T12:15:51.429Z,0.50
2019-03-12T12:18:20.327Z,0.43
2019-03-12T12:20:49.086Z,0.60
2019-03-12T12:23:17.718Z,0.50
2019-03-12T12:25:46.296Z,0.60
2019-03-12T12:28:14.858Z,0.50
2019-03-12T12:30:43.507Z,0.50
2019-03-12T12:33:12.142Z,0.43
2019-03-12T12:35:40.787Z,0.47
2019-03-12T12:38:09.354Z,0.70
2019-03-12T12:40:37.999Z,0.60
2019-03-12T12:43:06.700Z,0.60
2019-03-12T12:45:38.090Z,0.30
2019-03-12T12:48:06.766Z,0.40
2019-03-12T12:50:35.470Z,0.50
2019-03-12T12:53:04.223Z,0.40
2019-03-12T12:55:32.854Z,0.40
2019-03-12T12:58:01.443Z,0.50
2019-03-12T13:00:30.404Z,0.50
2019-03-12T13:02:59.102Z,0.40
2019-03-12T13:05:27.910Z,0.63
2019-03-12T13:07:56.499Z,0.60
2019-03-12T13:10:29.122Z,0.60
2019-03-12T13:12:57.760Z,0.53
2019-03-12T13:15:26.469Z,0.40
2019-03-12T13:17:55.107Z,0.50
2019-03-12T13:20:23.965Z,0.60
2019-03-12T13:22:52.683Z,0.60
2019-03-12T13:25:21.395Z,0.70
2019-03-12T13:27:50.030Z,0.70
2019-03-12T13:30:20.450Z,0.60
2019-03-12T13:32:49.080Z,0.57
2019-03-12T13:35:18.482Z,0.60
2019-03-12T13:37:47.895Z,0.50
2019-03-12T13:40:21.638Z,0.50
2019-03-12T13:42:50.266Z,0.70
2019-03-12T13:45:24.845Z,0.60
2019-03-12T13:47:53.565Z,0.60
2019-03-12T13:50:22.249Z,0.50
2019-03-12T13:52:51.074Z,0.90
2019-03-12T13:55:20.029Z,0.70
2019-03-12T13:57:48.599Z,1.00
2019-03-12T14:00:24.539Z,1.20
2019-03-12T14:02:53.464Z,1.00
2019-03-12T14:05:22.175Z,0.90
2019-03-12T14:07:50.809Z,0.80
2019-03-12T14:10:21.992Z,0.47
2019-03-12T14:12:52.094Z,0.60
2019-03-12T14:15:36.074Z,0.57
2019-03-12T14:18:05.073Z,0.70
2019-03-12T14:20:44.249Z,0.50
2019-03-12T14:23:27.756Z,0.53
2019-03-12T14:25:56.863Z,0.87
2019-03-12T14:28:25.630Z,0.73
2019-03-12T14:30:54.438Z,0.60
2019-03-12T14:33:23.083Z,0.70
2019-03-12T14:35:52.513Z,0.60
2019-03-12T14:38:21.420Z,0.43
2019-03-12T14:40:50.114Z,0.53
2019-03-12T14:43:18.898Z,0.50
2019-03-12T14:45:51.906Z,0.47
2019-03-12T14:48:51.082Z,0.60
2019-03-12T14:51:45.326Z,0.50
2019-03-12T14:54:14.450Z,0.60
2019-03-12T14:56:43.088Z,0.60
2019-03-12T14:59:11.794Z,0.60
2019-03-12T15:01:40.362Z,0.63
2019-03-12T15:04:08.927Z,0.80
2019-03-12T15:06:37.640Z,0.90
2019-03-12T15:09:08.310Z,0.70
2019-03-12T15:11:36.891Z,0.70
2019-03-12T15:14:05.522Z,0.70
2019-03-12T15:16:34.154Z,0.70
2019-03-12T15:19:02.730Z,0.80
2019-03-12T15:21:31.366Z,0.80
2019-03-12T15:23:59.938Z,0.80
2019-03-12T15:26:28.574Z,0.67
2019-03-12T15:28:57.157Z,0.70
2019-03-12T15:31:25.718Z,0.67
2019-03-12T15:33:54.362Z,0.70
2019-03-12T15:36:22.927Z,0.70
2019-03-12T15:38:51.502Z,0.80
2019-03-12T15:41:20.146Z,0.97
2019-03-12T15:43:48.711Z,0.90
2019-03-12T15:46:17.366Z,1.20
2019-03-12T15:48:46.002Z,1.00
2019-03-12T15:51:14.715Z,1.00
2019-03-12T15:53:43.278Z,1.10
2019-03-12T15:56:11.939Z,1.10
2019-03-12T15:58:40.586Z,1.33
2019-03-12T16:01:09.150Z,0.80
2019-03-12T16:03:37.727Z,0.90
2019-03-12T16:06:06.354Z,1.07
2019-03-12T16:08:34.950Z,0.70
2019-03-12T16:11:03.569Z,0.80
2019-03-12T16:13:32.143Z,0.70
2019-03-12T16:16:00.778Z,0.70
2019-03-12T16:18:29.418Z,0.70
2019-03-12T16:20:58.088Z,0.73
2019-03-12T16:23:26.650Z,0.60
2019-03-12T16:25:55.303Z,0.90
2019-03-12T16:28:23.867Z,0.80
2019-03-12T16:30:52.506Z,0.70
2019-03-12T16:33:21.146Z,0.80
2019-03-12T16:35:49.791Z,0.50
2019-03-12T16:38:18.353Z,0.80
2019-03-12T16:40:46.999Z,0.70
2019-03-12T16:43:15.570Z,0.63
2019-03-12T16:45:44.514Z,0.80
2019-03-12T16:48:13.080Z,0.60
2019-03-12T16:50:41.645Z,0.70
2019-03-12T16:53:10.279Z,0.60
2019-03-12T16:55:38.942Z,0.70
2019-03-12T16:58:07.583Z,0.50
2019-03-12T17:00:36.503Z,0.50
2019-03-12T17:03:05.802Z,0.60
2019-03-12T17:05:34.434Z,0.50
2019-03-12T17:08:03.038Z,0.53
2019-03-12T17:10:31.606Z,0.50
2019-03-12T17:13:00.310Z,0.67
2019-03-12T17:15:30.222Z,0.60
2019-03-12T17:17:58.862Z,0.90
2019-03-12T17:20:27.434Z,0.73
2019-03-12T17:22:55.998Z,0.80
2019-03-12T17:25:24.646Z,0.87
2019-03-12T17:27:53.217Z,0.73
2019-03-12T17:30:23.009Z,0.90
2019-03-12T17:32:51.761Z,0.77
2019-03-12T17:35:35.725Z,0.77
2019-03-12T17:38:04.400Z,0.60
2019-03-12T17:40:33.086Z,0.67
2019-03-12T17:43:01.654Z,0.70
2019-03-12T17:45:30.292Z,0.93
2019-03-12T17:47:58.869Z,1.00
2019-03-12T17:50:27.598Z,0.90
2019-03-12T17:52:56.216Z,0.90
2019-03-12T17:55:24.818Z,1.07
2019-03-12T17:57:53.410Z,0.97
2019-03-12T18:00:27.797Z,0.90
2019-03-12T18:02:55.022Z,1.07
2019-03-12T18:05:23.746Z,1.23
2019-03-12T18:07:52.382Z,0.80
2019-03-12T18:10:21.027Z,1.00
2019-03-12T18:12:49.591Z,1.00
2019-03-12T18:15:20.470Z,0.90
2019-03-12T18:17:49.368Z,1.10
2019-03-12T18:20:20.250Z,1.00
2019-03-12T18:22:48.903Z,1.00
2019-03-12T18:25:35.215Z,0.87
2019-03-12T18:28:04.058Z,1.20
2019-03-12T18:30:32.787Z,0.90
2019-03-12T18:33:01.372Z,1.20
2019-03-12T18:35:29.950Z,0.80
2019-03-12T18:37:58.528Z,1.20
2019-03-12T18:40:28.333Z,1.00
2019-03-12T18:42:56.906Z,1.20
2019-03-12T18:45:33.798Z,1.10
2019-03-12T18:48:02.539Z,0.90
2019-03-12T18:50:31.171Z,1.30
2019-03-12T18:52:59.807Z,1.03
2019-03-12T18:55:37.574Z,1.00
2019-03-12T18:58:06.126Z,1.00
2019-03-12T19:00:35.546Z,1.00
2019-03-12T19:03:04.248Z,1.17
2019-03-12T19:05:32.894Z,0.87
2019-03-12T19:08:01.599Z,1.00
2019-03-12T19:10:30.201Z,1.00
2019-03-12T19:12:58.842Z,1.30
2019-03-12T19:15:27.521Z,1.03
2019-03-12T19:17:56.055Z,1.37
2019-03-12T19:20:24.633Z,0.90
2019-03-12T19:22:53.262Z,1.20
2019-03-12T19:25:26.882Z,1.07
2019-03-12T19:28:00.122Z,1.30
2019-03-12T19:30:26.034Z,1.07
2019-03-12T19:33:02.426Z,1.20
2019-03-12T19:35:31.826Z,1.10
2019-03-12T19:38:01.675Z,1.30
2019-03-12T19:40:33.347Z,1.40
2019-03-12T19:43:02.050Z,1.10
2019-03-12T19:45:30.834Z,1.07
2019-03-12T19:47:59.606Z,1.20
2019-03-12T19:50:28.554Z,1.20
2019-03-12T19:52:57.262Z,1.47
2019-03-12T19:55:37.878Z,1.47
2019-03-12T19:58:06.603Z,1.83
2019-03-12T20:00:35.687Z,1.70
2019-03-12T20:03:11.759Z,1.20
2019-03-12T20:05:35.545Z,1.50
2019-03-12T20:08:04.286Z,1.57
2019-03-12T20:10:52.423Z,1.43
2019-03-12T20:13:58.850Z,1.70
2019-03-12T20:16:39.275Z,1.80
2019-03-12T20:19:27.547Z,1.60
2019-03-12T20:22:28.158Z,1.60
2019-03-12T20:25:22.771Z,1.60
2019-03-12T20:28:18.334Z,1.73
2019-03-12T20:31:02.090Z,1.67
2019-03-12T20:34:05.589Z,2.00
2019-03-12T20:36:42.990Z,2.20
2019-03-12T20:39:37.253Z,2.20
2019-03-12T20:42:26.793Z,2.07
2019-03-12T20:45:31.536Z,1.97
2019-03-12T20:48:15.199Z,2.10
2019-03-12T20:51:20.670Z,2.33
2019-03-12T20:54:08.978Z,2.60
2019-03-12T20:56:46.446Z,2.30
2019-03-12T20:59:50.158Z,2.63
2019-03-12T21:02:47.723Z,2.57
2019-03-12T21:05:37.739Z,2.30
2019-03-12T21:08:21.350Z,2.53
2019-03-12T21:11:09.555Z,2.80
2019-03-12T21:13:59.154Z,3.00
2019-03-12T21:16:33.615Z,3.00
2019-03-12T21:19:11.226Z,3.50
2019-03-12T21:22:04.102Z,3.37
2019-03-12T21:25:07.431Z,3.10
2019-03-12T21:27:50.926Z,3.70
2019-03-12T21:30:22.591Z,4.07
2019-03-12T21:32:51.150Z,3.80
2019-03-12T21:35:19.726Z,3.93
2019-03-12T21:37:48.450Z,4.13
2019-03-12T21:40:17.086Z,4.20
2019-03-12T21:42:45.666Z,5.03
2019-03-12T21:45:14.942Z,3.50
2019-03-12T21:47:43.509Z,4.27
2019-03-12T21:50:12.326Z,4.27
2019-03-12T21:52:41.074Z,3.80
2019-03-12T21:55:14.723Z,4.10
2019-03-12T21:57:43.367Z,4.57
2019-03-12T22:00:17.274Z,4.87
2019-03-12T22:02:45.918Z,4.63
2019-03-12T22:05:14.634Z,4.63
2019-03-12T22:07:43.350Z,4.10
2019-03-12T22:10:12.578Z,4.40
2019-03-12T22:12:41.220Z,4.73
2019-03-12T22:15:12.027Z,4.90
2019-03-12T22:17:40.725Z,5.73
2019-03-12T22:20:14.002Z,4.73
2019-03-12T22:22:44.298Z,4.77
2019-03-12T22:25:13.858Z,5.20
2019-03-12T22:27:42.531Z,5.07
2019-03-12T22:30:24.217Z,5.07
2019-03-12T22:32:55.488Z,4.17
2019-03-12T22:35:24.007Z,5.40
2019-03-12T22:37:52.576Z,6.92
2019-03-12T22:40:21.156Z,5.03
2019-03-12T22:42:49.791Z,5.00
2019-03-12T22:45:18.609Z,4.23
2019-03-12T22:47:47.194Z,4.97
2019-03-12T22:50:16.614Z,4.50
2019-03-12T22:52:45.178Z,4.80
2019-03-12T22:55:14.397Z,4.57
2019-03-12T22:57:43.035Z,4.53
2019-03-12T23:00:18.243Z,4.73
2019-03-12T23:02:46.948Z,5.63
2019-03-12T23:05:15.754Z,4.67
2019-03-12T23:07:44.468Z,4.40
2019-03-12T23:10:14.746Z,4.63
2019-03-12T23:12:43.730Z,4.03
2019-03-12T23:15:15.750Z,4.80
2019-03-12T23:17:44.318Z,4.97
2019-03-12T23:20:19.253Z,5.10
2019-03-12T23:22:51.763Z,5.00
2019-03-12T23:25:18.958Z,4.50
2019-03-12T23:27:47.690Z,5.43
2019-03-12T23:30:19.516Z,5.13
2019-03-12T23:32:48.222Z,4.70
2019-03-12T23:35:16.966Z,4.87
2019-03-12T23:37:45.603Z,5.13
2019-03-12T23:40:16.229Z,5.03
2019-03-12T23:42:44.874Z,4.80
2019-03-12T23:45:15.278Z,4.70
2019-03-12T23:47:44.434Z,4.83
2019-03-12T23:50:16.983Z,4.83
2019-03-12T23:52:46.001Z,4.43
2019-03-12T23:55:16.377Z,4.60
2019-03-12T23:57:45.093Z,5.53
